sensor_id;sensor_type;location;lat;lon;timestamp;P1;durP1;ratioP1;P2;durP2;ratioP2
71368;SDS011;59175;53.214;5.728;2022-07-24T00:01:25;3.87;;;1.43;;
71368;SDS011;59175;53.214;5.728;2022-07-24T00:03:50;5.67;;;1.63;;
71368;SDS011;59175;53.214;5.728;2022-07-24T00:06:15;4.03;;;1.50;;
71368;SDS011;59175;53.214;5.728;2022-07-24T00:08:41;4.87;;;1.50;;
71368;SDS011;59175;53.214;5.728;2022-07-24T00:11:06;8.83;;;1.60;;
71368;SDS011;59175;53.214;5.728;2022-07-24T00:13:31;4.70;;;1.33;;
71368;SDS011;59175;53.214;5.728;2022-07-24T00:15:56;4.77;;;1.57;;
71368;SDS011;59175;53.214;5.728;2022-07-24T00:18:22;4.80;;;1.50;;
71368;SDS011;59175;53.214;5.728;2022-07-24T00:20:47;5.70;;;1.47;;
71368;SDS011;59175;53.214;5.728;2022-07-24T00:23:12;4.63;;;1.57;;
71368;SDS011;59175;53.214;5.728;2022-07-24T00:25:37;7.80;;;1.60;;
71368;SDS011;59175;53.214;5.728;2022-07-24T00:28:03;7.97;;;1.87;;
71368;SDS011;59175;53.214;5.728;2022-07-24T00:30:28;5.03;;;1.43;;
71368;SDS011;59175;53.214;5.728;2022-07-24T00:32:53;5.87;;;1.60;;
71368;SDS011;59175;53.214;5.728;2022-07-24T00:35:18;5.73;;;1.60;;
71368;SDS011;59175;53.214;5.728;2022-07-24T00:37:44;5.67;;;1.60;;
71368;SDS011;59175;53.214;5.728;2022-07-24T00:40:11;7.05;;;1.70;;
71368;SDS011;59175;53.214;5.728;2022-07-24T00:42:36;4.73;;;1.50;;
71368;SDS011;59175;53.214;5.728;2022-07-24T00:45:01;5.23;;;1.80;;
71368;SDS011;59175;53.214;5.728;2022-07-24T00:47:27;5.70;;;1.77;;
71368;SDS011;59175;53.214;5.728;2022-07-24T00:49:52;8.77;;;1.97;;
71368;SDS011;59175;53.214;5.728;2022-07-24T00:52:17;5.37;;;1.70;;
71368;SDS011;59175;53.214;5.728;2022-07-24T00:54:43;4.07;;;1.30;;
71368;SDS011;59175;53.214;5.728;2022-07-24T00:57:08;6.05;;;1.85;;
71368;SDS011;59175;53.214;5.728;2022-07-24T00:59:33;5.60;;;1.60;;
71368;SDS011;59175;53.214;5.728;2022-07-24T01:01:59;6.20;;;1.90;;
71368;SDS011;59175;53.214;5.728;2022-07-24T01:04:24;6.03;;;1.73;;
71368;SDS011;59175;53.214;5.728;2022-07-24T01:06:49;5.93;;;2.03;;
71368;SDS011;59175;53.214;5.728;2022-07-24T01:09:14;6.23;;;2.17;;
71368;SDS011;59175;53.214;5.728;2022-07-24T01:11:40;5.20;;;1.90;;
71368;SDS011;59175;53.214;5.728;2022-07-24T01:14:05;5.53;;;1.80;;
71368;SDS011;59175;53.214;5.728;2022-07-24T01:16:32;6.47;;;2.10;;
71368;SDS011;59175;53.214;5.728;2022-07-24T01:18:57;6.80;;;1.80;;
71368;SDS011;59175;53.214;5.728;2022-07-24T01:21:22;7.30;;;2.63;;
71368;SDS011;59175;53.214;5.728;2022-07-24T01:23:48;6.27;;;1.93;;
71368;SDS011;59175;53.214;5.728;2022-07-24T01:26:13;7.97;;;2.40;;
71368;SDS011;59175;53.214;5.728;2022-07-24T01:28:38;7.93;;;2.43;;
71368;SDS011;59175;53.214;5.728;2022-07-24T01:31:03;7.03;;;2.03;;
71368;SDS011;59175;53.214;5.728;2022-07-24T01:33:29;5.77;;;2.33;;
71368;SDS011;59175;53.214;5.728;2022-07-24T01:35:54;5.43;;;2.13;;
71368;SDS011;59175;53.214;5.728;2022-07-24T01:38:20;5.40;;;1.63;;
71368;SDS011;59175;53.214;5.728;2022-07-24T01:40:45;5.43;;;1.77;;
71368;SDS011;59175;53.214;5.728;2022-07-24T01:43:10;5.57;;;2.00;;
71368;SDS011;59175;53.214;5.728;2022-07-24T01:45:35;7.70;;;2.37;;
71368;SDS011;59175;53.214;5.728;2022-07-24T01:48:01;7.20;;;1.77;;
71368;SDS011;59175;53.214;5.728;2022-07-24T01:50:26;6.20;;;2.40;;
71368;SDS011;59175;53.214;5.728;2022-07-24T01:52:52;6.27;;;2.37;;
71368;SDS011;59175;53.214;5.728;2022-07-24T01:55:20;6.88;;;1.92;;
71368;SDS011;59175;53.214;5.728;2022-07-24T01:57:45;5.73;;;2.17;;
71368;SDS011;59175;53.214;5.728;2022-07-24T02:00:11;6.57;;;2.50;;
71368;SDS011;59175;53.214;5.728;2022-07-24T02:02:37;6.20;;;2.42;;
71368;SDS011;59175;53.214;5.728;2022-07-24T02:05:03;5.95;;;1.88;;
71368;SDS011;59175;53.214;5.728;2022-07-24T02:07:28;6.33;;;2.30;;
71368;SDS011;59175;53.214;5.728;2022-07-24T02:09:54;6.13;;;2.27;;
71368;SDS011;59175;53.214;5.728;2022-07-24T02:12:19;8.20;;;2.93;;
71368;SDS011;59175;53.214;5.728;2022-07-24T02:14:44;7.13;;;2.67;;
71368;SDS011;59175;53.214;5.728;2022-07-24T02:17:09;7.07;;;2.67;;
71368;SDS011;59175;53.214;5.728;2022-07-24T02:19:35;5.87;;;2.40;;
71368;SDS011;59175;53.214;5.728;2022-07-24T02:22:00;6.20;;;1.95;;
71368;SDS011;59175;53.214;5.728;2022-07-24T02:24:25;6.80;;;2.72;;
71368;SDS011;59175;53.214;5.728;2022-07-24T02:26:50;7.07;;;2.80;;
71368;SDS011;59175;53.214;5.728;2022-07-24T02:29:16;7.20;;;2.28;;
71368;SDS011;59175;53.214;5.728;2022-07-24T02:31:41;6.13;;;2.20;;
71368;SDS011;59175;53.214;5.728;2022-07-24T02:34:06;8.50;;;2.70;;
71368;SDS011;59175;53.214;5.728;2022-07-24T02:36:31;6.67;;;2.73;;
71368;SDS011;59175;53.214;5.728;2022-07-24T02:38:57;8.90;;;2.37;;
71368;SDS011;59175;53.214;5.728;2022-07-24T02:41:22;7.30;;;2.80;;
71368;SDS011;59175;53.214;5.728;2022-07-24T02:43:47;7.57;;;2.20;;
71368;SDS011;59175;53.214;5.728;2022-07-24T02:46:12;6.13;;;2.30;;
71368;SDS011;59175;53.214;5.728;2022-07-24T02:48:37;8.23;;;2.67;;
71368;SDS011;59175;53.214;5.728;2022-07-24T02:51:03;7.10;;;2.70;;
71368;SDS011;59175;53.214;5.728;2022-07-24T02:53:28;6.97;;;2.37;;
71368;SDS011;59175;53.214;5.728;2022-07-24T02:55:53;7.17;;;2.70;;
71368;SDS011;59175;53.214;5.728;2022-07-24T02:58:18;6.63;;;2.73;;
71368;SDS011;59175;53.214;5.728;2022-07-24T03:00:44;6.37;;;2.80;;
71368;SDS011;59175;53.214;5.728;2022-07-24T03:03:09;7.33;;;2.80;;
71368;SDS011;59175;53.214;5.728;2022-07-24T03:05:34;7.37;;;2.57;;
71368;SDS011;59175;53.214;5.728;2022-07-24T03:07:59;10.40;;;3.10;;
71368;SDS011;59175;53.214;5.728;2022-07-24T03:10:25;8.67;;;3.00;;
71368;SDS011;59175;53.214;5.728;2022-07-24T03:12:50;9.00;;;2.90;;
71368;SDS011;59175;53.214;5.728;2022-07-24T03:15:15;7.13;;;2.80;;
71368;SDS011;59175;53.214;5.728;2022-07-24T03:17:50;8.00;;;3.00;;
71368;SDS011;59175;53.214;5.728;2022-07-24T03:20:16;7.95;;;2.65;;
71368;SDS011;59175;53.214;5.728;2022-07-24T03:22:41;7.17;;;2.30;;
71368;SDS011;59175;53.214;5.728;2022-07-24T03:25:06;8.20;;;3.47;;
71368;SDS011;59175;53.214;5.728;2022-07-24T03:27:31;8.33;;;3.13;;
71368;SDS011;59175;53.214;5.728;2022-07-24T03:29:57;9.10;;;2.97;;
71368;SDS011;59175;53.214;5.728;2022-07-24T03:32:22;9.43;;;3.57;;
71368;SDS011;59175;53.214;5.728;2022-07-24T03:34:47;8.27;;;2.67;;
71368;SDS011;59175;53.214;5.728;2022-07-24T03:37:12;8.07;;;3.17;;
71368;SDS011;59175;53.214;5.728;2022-07-24T03:39:37;8.53;;;2.83;;
71368;SDS011;59175;53.214;5.728;2022-07-24T03:42:03;6.97;;;2.73;;
71368;SDS011;59175;53.214;5.728;2022-07-24T03:44:28;8.07;;;2.90;;
71368;SDS011;59175;53.214;5.728;2022-07-24T03:46:53;11.90;;;3.00;;
71368;SDS011;59175;53.214;5.728;2022-07-24T03:49:18;7.53;;;2.87;;
71368;SDS011;59175;53.214;5.728;2022-07-24T03:51:43;7.65;;;2.70;;
71368;SDS011;59175;53.214;5.728;2022-07-24T03:54:09;9.90;;;3.23;;
71368;SDS011;59175;53.214;5.728;2022-07-24T03:56:34;6.32;;;2.65;;
71368;SDS011;59175;53.214;5.728;2022-07-24T03:58:59;8.30;;;2.30;;
71368;SDS011;59175;53.214;5.728;2022-07-24T04:01:24;7.78;;;2.53;;
71368;SDS011;59175;53.214;5.728;2022-07-24T04:03:49;6.03;;;1.83;;
71368;SDS011;59175;53.214;5.728;2022-07-24T04:06:15;9.70;;;3.88;;
71368;SDS011;59175;53.214;5.728;2022-07-24T04:08:40;10.30;;;2.85;;
71368;SDS011;59175;53.214;5.728;2022-07-24T04:11:05;8.27;;;3.35;;
71368;SDS011;59175;53.214;5.728;2022-07-24T04:13:32;15.07;;;2.87;;
71368;SDS011;59175;53.214;5.728;2022-07-24T04:15:58;8.68;;;2.97;;
71368;SDS011;59175;53.214;5.728;2022-07-24T04:18:23;7.50;;;2.80;;
71368;SDS011;59175;53.214;5.728;2022-07-24T04:20:48;6.37;;;2.53;;
71368;SDS011;59175;53.214;5.728;2022-07-24T04:23:14;9.90;;;3.27;;
71368;SDS011;59175;53.214;5.728;2022-07-24T04:25:39;11.97;;;3.20;;
71368;SDS011;59175;53.214;5.728;2022-07-24T04:28:04;11.20;;;3.10;;
71368;SDS011;59175;53.214;5.728;2022-07-24T04:30:30;7.37;;;2.67;;
71368;SDS011;59175;53.214;5.728;2022-07-24T04:32:55;8.90;;;2.78;;
71368;SDS011;59175;53.214;5.728;2022-07-24T04:35:21;7.67;;;2.80;;
71368;SDS011;59175;53.214;5.728;2022-07-24T04:37:46;8.13;;;2.40;;
71368;SDS011;59175;53.214;5.728;2022-07-24T04:40:12;7.78;;;2.88;;
71368;SDS011;59175;53.214;5.728;2022-07-24T04:42:37;11.03;;;3.33;;
71368;SDS011;59175;53.214;5.728;2022-07-24T04:45:03;7.87;;;2.87;;
71368;SDS011;59175;53.214;5.728;2022-07-24T04:47:28;6.18;;;2.42;;
71368;SDS011;59175;53.214;5.728;2022-07-24T04:49:54;7.47;;;2.93;;
71368;SDS011;59175;53.214;5.728;2022-07-24T04:52:19;6.53;;;2.50;;
71368;SDS011;59175;53.214;5.728;2022-07-24T04:54:44;8.80;;;2.87;;
71368;SDS011;59175;53.214;5.728;2022-07-24T04:57:09;9.70;;;3.03;;
71368;SDS011;59175;53.214;5.728;2022-07-24T04:59:34;6.90;;;2.63;;
71368;SDS011;59175;53.214;5.728;2022-07-24T05:02:00;9.73;;;2.90;;
71368;SDS011;59175;53.214;5.728;2022-07-24T05:04:25;13.33;;;3.27;;
71368;SDS011;59175;53.214;5.728;2022-07-24T05:06:50;9.27;;;2.60;;
71368;SDS011;59175;53.214;5.728;2022-07-24T05:09:15;8.33;;;3.57;;
71368;SDS011;59175;53.214;5.728;2022-07-24T05:11:40;5.97;;;2.33;;
71368;SDS011;59175;53.214;5.728;2022-07-24T05:14:06;9.90;;;3.90;;
71368;SDS011;59175;53.214;5.728;2022-07-24T05:16:31;9.50;;;3.67;;
71368;SDS011;59175;53.214;5.728;2022-07-24T05:18:56;7.27;;;2.90;;
71368;SDS011;59175;53.214;5.728;2022-07-24T05:21:21;8.47;;;3.07;;
71368;SDS011;59175;53.214;5.728;2022-07-24T05:23:47;11.17;;;3.30;;
71368;SDS011;59175;53.214;5.728;2022-07-24T05:26:12;7.43;;;3.37;;
71368;SDS011;59175;53.214;5.728;2022-07-24T05:28:37;10.43;;;3.77;;
71368;SDS011;59175;53.214;5.728;2022-07-24T05:31:02;11.37;;;3.43;;
71368;SDS011;59175;53.214;5.728;2022-07-24T05:33:28;7.40;;;2.72;;
71368;SDS011;59175;53.214;5.728;2022-07-24T05:35:54;8.70;;;3.43;;
71368;SDS011;59175;53.214;5.728;2022-07-24T05:38:19;9.30;;;2.73;;
71368;SDS011;59175;53.214;5.728;2022-07-24T05:40:44;13.73;;;3.73;;
71368;SDS011;59175;53.214;5.728;2022-07-24T05:43:09;7.70;;;3.53;;
71368;SDS011;59175;53.214;5.728;2022-07-24T05:45:35;8.97;;;3.90;;
71368;SDS011;59175;53.214;5.728;2022-07-24T05:48:00;11.87;;;3.67;;
71368;SDS011;59175;53.214;5.728;2022-07-24T05:50:25;8.87;;;3.73;;
71368;SDS011;59175;53.214;5.728;2022-07-24T05:52:50;8.60;;;3.40;;
71368;SDS011;59175;53.214;5.728;2022-07-24T05:55:15;9.17;;;3.23;;
71368;SDS011;59175;53.214;5.728;2022-07-24T05:57:41;9.83;;;3.27;;
71368;SDS011;59175;53.214;5.728;2022-07-24T06:00:06;9.03;;;3.80;;
71368;SDS011;59175;53.214;5.728;2022-07-24T06:02:32;10.43;;;4.63;;
71368;SDS011;59175;53.214;5.728;2022-07-24T06:04:57;10.60;;;3.27;;
71368;SDS011;59175;53.214;5.728;2022-07-24T06:07:22;9.37;;;3.40;;
71368;SDS011;59175;53.214;5.728;2022-07-24T06:09:48;10.03;;;4.20;;
71368;SDS011;59175;53.214;5.728;2022-07-24T06:12:13;11.40;;;3.73;;
71368;SDS011;59175;53.214;5.728;2022-07-24T06:14:38;10.13;;;4.70;;
71368;SDS011;59175;53.214;5.728;2022-07-24T06:17:03;11.73;;;4.53;;
71368;SDS011;59175;53.214;5.728;2022-07-24T06:19:29;10.60;;;4.63;;
71368;SDS011;59175;53.214;5.728;2022-07-24T06:21:54;12.10;;;4.13;;
71368;SDS011;59175;53.214;5.728;2022-07-24T06:24:19;13.13;;;5.87;;
71368;SDS011;59175;53.214;5.728;2022-07-24T06:26:44;9.00;;;4.33;;
71368;SDS011;59175;53.214;5.728;2022-07-24T06:29:10;9.53;;;4.57;;
71368;SDS011;59175;53.214;5.728;2022-07-24T06:31:35;10.50;;;3.73;;
71368;SDS011;59175;53.214;5.728;2022-07-24T06:34:00;12.07;;;4.10;;
71368;SDS011;59175;53.214;5.728;2022-07-24T06:36:25;9.87;;;3.97;;
71368;SDS011;59175;53.214;5.728;2022-07-24T06:38:52;8.38;;;3.20;;
71368;SDS011;59175;53.214;5.728;2022-07-24T06:41:17;7.37;;;2.80;;
71368;SDS011;59175;53.214;5.728;2022-07-24T06:43:42;10.07;;;3.23;;
71368;SDS011;59175;53.214;5.728;2022-07-24T06:46:07;7.47;;;2.67;;
71368;SDS011;59175;53.214;5.728;2022-07-24T06:48:33;5.93;;;2.43;;
71368;SDS011;59175;53.214;5.728;2022-07-24T06:50:58;9.27;;;2.00;;
71368;SDS011;59175;53.214;5.728;2022-07-24T06:53:23;5.83;;;2.13;;
71368;SDS011;59175;53.214;5.728;2022-07-24T06:55:48;5.80;;;2.30;;
71368;SDS011;59175;53.214;5.728;2022-07-24T06:58:17;4.20;;;1.20;;
71368;SDS011;59175;53.214;5.728;2022-07-24T07:00:42;4.43;;;1.27;;
71368;SDS011;59175;53.214;5.728;2022-07-24T07:03:07;3.83;;;1.43;;
71368;SDS011;59175;53.214;5.728;2022-07-24T07:05:33;7.43;;;1.50;;
71368;SDS011;59175;53.214;5.728;2022-07-24T07:07:58;7.13;;;1.30;;
71368;SDS011;59175;53.214;5.728;2022-07-24T07:10:23;4.73;;;1.30;;
71368;SDS011;59175;53.214;5.728;2022-07-24T07:12:49;4.17;;;1.20;;
71368;SDS011;59175;53.214;5.728;2022-07-24T07:15:14;4.53;;;1.53;;
71368;SDS011;59175;53.214;5.728;2022-07-24T07:17:40;5.18;;;1.67;;
71368;SDS011;59175;53.214;5.728;2022-07-24T07:20:06;5.72;;;1.83;;
71368;SDS011;59175;53.214;5.728;2022-07-24T07:22:32;4.70;;;1.60;;
71368;SDS011;59175;53.214;5.728;2022-07-24T07:24:57;5.00;;;1.43;;
71368;SDS011;59175;53.214;5.728;2022-07-24T07:27:22;5.30;;;1.90;;
71368;SDS011;59175;53.214;5.728;2022-07-24T07:29:48;7.53;;;1.83;;
71368;SDS011;59175;53.214;5.728;2022-07-24T07:32:13;4.53;;;1.20;;
71368;SDS011;59175;53.214;5.728;2022-07-24T07:34:38;5.40;;;1.40;;
71368;SDS011;59175;53.214;5.728;2022-07-24T07:37:03;5.67;;;1.43;;
71368;SDS011;59175;53.214;5.728;2022-07-24T07:39:29;4.13;;;1.43;;
71368;SDS011;59175;53.214;5.728;2022-07-24T07:41:54;10.63;;;1.60;;
71368;SDS011;59175;53.214;5.728;2022-07-24T07:44:19;6.97;;;2.27;;
71368;SDS011;59175;53.214;5.728;2022-07-24T07:46:44;7.03;;;1.30;;
71368;SDS011;59175;53.214;5.728;2022-07-24T07:49:09;3.97;;;1.17;;
71368;SDS011;59175;53.214;5.728;2022-07-24T07:51:34;6.37;;;1.37;;
71368;SDS011;59175;53.214;5.728;2022-07-24T07:54:00;6.70;;;1.57;;
71368;SDS011;59175;53.214;5.728;2022-07-24T07:56:26;6.60;;;1.48;;
71368;SDS011;59175;53.214;5.728;2022-07-24T07:58:51;6.00;;;1.57;;
71368;SDS011;59175;53.214;5.728;2022-07-24T08:01:16;6.47;;;1.50;;
71368;SDS011;59175;53.214;5.728;2022-07-24T08:03:41;5.77;;;1.30;;
71368;SDS011;59175;53.214;5.728;2022-07-24T08:06:07;11.93;;;2.10;;
71368;SDS011;59175;53.214;5.728;2022-07-24T08:08:32;5.18;;;1.35;;
71368;SDS011;59175;53.214;5.728;2022-07-24T08:10:58;4.73;;;1.30;;
71368;SDS011;59175;53.214;5.728;2022-07-24T08:13:23;3.40;;;0.93;;
71368;SDS011;59175;53.214;5.728;2022-07-24T08:15:48;7.90;;;1.33;;
71368;SDS011;59175;53.214;5.728;2022-07-24T08:18:13;6.50;;;1.10;;
71368;SDS011;59175;53.214;5.728;2022-07-24T08:20:41;4.40;;;1.27;;
71368;SDS011;59175;53.214;5.728;2022-07-24T08:23:09;3.03;;;0.93;;
71368;SDS011;59175;53.214;5.728;2022-07-24T08:25:35;5.23;;;1.60;;
71368;SDS011;59175;53.214;5.728;2022-07-24T08:28:00;4.10;;;1.42;;
71368;SDS011;59175;53.214;5.728;2022-07-24T08:30:25;5.30;;;1.20;;
71368;SDS011;59175;53.214;5.728;2022-07-24T08:32:51;3.50;;;1.33;;
71368;SDS011;59175;53.214;5.728;2022-07-24T08:35:17;9.13;;;1.13;;
71368;SDS011;59175;53.214;5.728;2022-07-24T08:37:42;3.20;;;0.90;;
71368;SDS011;59175;53.214;5.728;2022-07-24T08:40:08;4.03;;;1.03;;
71368;SDS011;59175;53.214;5.728;2022-07-24T08:42:34;5.63;;;0.95;;
71368;SDS011;59175;53.214;5.728;2022-07-24T08:44:59;4.53;;;1.10;;
71368;SDS011;59175;53.214;5.728;2022-07-24T08:47:25;4.37;;;1.70;;
71368;SDS011;59175;53.214;5.728;2022-07-24T08:49:52;7.20;;;0.80;;
71368;SDS011;59175;53.214;5.728;2022-07-24T08:52:18;6.03;;;1.40;;
71368;SDS011;59175;53.214;5.728;2022-07-24T08:54:45;4.23;;;1.10;;
71368;SDS011;59175;53.214;5.728;2022-07-24T08:57:10;8.57;;;1.30;;
71368;SDS011;59175;53.214;5.728;2022-07-24T08:59:36;3.57;;;1.07;;
71368;SDS011;59175;53.214;5.728;2022-07-24T09:02:01;6.23;;;1.93;;
71368;SDS011;59175;53.214;5.728;2022-07-24T09:06:58;4.15;;;1.13;;
71368;SDS011;59175;53.214;5.728;2022-07-24T09:09:23;4.73;;;1.17;;
71368;SDS011;59175;53.214;5.728;2022-07-24T09:11:49;7.00;;;0.83;;
71368;SDS011;59175;53.214;5.728;2022-07-24T09:14:14;7.00;;;1.20;;
71368;SDS011;59175;53.214;5.728;2022-07-24T09:17:04;4.78;;;1.35;;
71368;SDS011;59175;53.214;5.728;2022-07-24T09:19:30;3.83;;;1.10;;
71368;SDS011;59175;53.214;5.728;2022-07-24T09:21:56;6.07;;;1.10;;
71368;SDS011;59175;53.214;5.728;2022-07-24T09:24:22;4.20;;;1.10;;
71368;SDS011;59175;53.214;5.728;2022-07-24T09:26:51;7.10;;;1.10;;
71368;SDS011;59175;53.214;5.728;2022-07-24T09:29:17;4.65;;;1.35;;
71368;SDS011;59175;53.214;5.728;2022-07-24T09:31:57;4.20;;;1.00;;
71368;SDS011;59175;53.214;5.728;2022-07-24T09:34:23;2.77;;;1.00;;
71368;SDS011;59175;53.214;5.728;2022-07-24T09:36:59;4.20;;;1.35;;
71368;SDS011;59175;53.214;5.728;2022-07-24T09:39:25;3.30;;;1.10;;
71368;SDS011;59175;53.214;5.728;2022-07-24T09:41:51;6.10;;;1.20;;
71368;SDS011;59175;53.214;5.728;2022-07-24T09:44:17;3.67;;;1.10;;
71368;SDS011;59175;53.214;5.728;2022-07-24T09:46:45;5.17;;;1.00;;
71368;SDS011;59175;53.214;5.728;2022-07-24T09:49:17;5.07;;;1.27;;
71368;SDS011;59175;53.214;5.728;2022-07-24T09:51:43;4.60;;;1.35;;
71368;SDS011;59175;53.214;5.728;2022-07-24T09:54:08;3.20;;;1.10;;
71368;SDS011;59175;53.214;5.728;2022-07-24T09:56:35;4.30;;;1.20;;
71368;SDS011;59175;53.214;5.728;2022-07-24T09:59:00;3.55;;;1.20;;
71368;SDS011;59175;53.214;5.728;2022-07-24T10:01:28;4.05;;;1.33;;
71368;SDS011;59175;53.214;5.728;2022-07-24T10:03:54;3.65;;;0.82;;
71368;SDS011;59175;53.214;5.728;2022-07-24T10:06:25;3.07;;;0.90;;
71368;SDS011;59175;53.214;5.728;2022-07-24T10:08:51;3.83;;;0.73;;
71368;SDS011;59175;53.214;5.728;2022-07-24T10:11:17;5.15;;;1.20;;
71368;SDS011;59175;53.214;5.728;2022-07-24T10:13:43;5.23;;;1.10;;
71368;SDS011;59175;53.214;5.728;2022-07-24T10:18:44;4.27;;;0.83;;
71368;SDS011;59175;53.214;5.728;2022-07-24T10:21:10;5.72;;;1.05;;
71368;SDS011;59175;53.214;5.728;2022-07-24T10:23:49;2.88;;;0.88;;
71368;SDS011;59175;53.214;5.728;2022-07-24T10:26:18;6.10;;;1.08;;
71368;SDS011;59175;53.214;5.728;2022-07-24T10:28:49;3.22;;;0.90;;
71368;SDS011;59175;53.214;5.728;2022-07-24T10:31:17;4.50;;;1.20;;
71368;SDS011;59175;53.214;5.728;2022-07-24T10:33:45;3.90;;;1.48;;
71368;SDS011;59175;53.214;5.728;2022-07-24T10:36:22;3.45;;;1.27;;
71368;SDS011;59175;53.214;5.728;2022-07-24T10:38:56;4.68;;;1.05;;
71368;SDS011;59175;53.214;5.728;2022-07-24T10:41:24;3.67;;;1.25;;
71368;SDS011;59175;53.214;5.728;2022-07-24T10:44:23;4.30;;;1.17;;
71368;SDS011;59175;53.214;5.728;2022-07-24T10:46:58;3.72;;;1.17;;
71368;SDS011;59175;53.214;5.728;2022-07-24T10:49:36;2.95;;;0.90;;
71368;SDS011;59175;53.214;5.728;2022-07-24T10:52:01;3.13;;;0.98;;
71368;SDS011;59175;53.214;5.728;2022-07-24T10:54:27;3.60;;;1.00;;
71368;SDS011;59175;53.214;5.728;2022-07-24T10:56:52;3.37;;;0.90;;
71368;SDS011;59175;53.214;5.728;2022-07-24T10:59:31;4.47;;;1.13;;
71368;SDS011;59175;53.214;5.728;2022-07-24T11:01:56;2.88;;;1.00;;
71368;SDS011;59175;53.214;5.728;2022-07-24T11:06:48;2.80;;;1.10;;
71368;SDS011;59175;53.214;5.728;2022-07-24T11:09:14;6.13;;;1.57;;
71368;SDS011;59175;53.214;5.728;2022-07-24T11:12:02;3.13;;;1.10;;
71368;SDS011;59175;53.214;5.728;2022-07-24T11:16:50;2.77;;;0.87;;
71368;SDS011;59175;53.214;5.728;2022-07-24T11:21:41;3.77;;;0.90;;
71368;SDS011;59175;53.214;5.728;2022-07-24T11:26:53;3.30;;;1.20;;
71368;SDS011;59175;53.214;5.728;2022-07-24T11:29:20;3.20;;;0.77;;
71368;SDS011;59175;53.214;5.728;2022-07-24T11:31:48;4.03;;;1.35;;
71368;SDS011;59175;53.214;5.728;2022-07-24T11:34:13;3.60;;;1.13;;
71368;SDS011;59175;53.214;5.728;2022-07-24T11:36:39;2.53;;;0.93;;
71368;SDS011;59175;53.214;5.728;2022-07-24T11:39:05;3.15;;;1.10;;
71368;SDS011;59175;53.214;5.728;2022-07-24T11:44:29;3.05;;;0.90;;
71368;SDS011;59175;53.214;5.728;2022-07-24T11:46:55;3.50;;;1.30;;
71368;SDS011;59175;53.214;5.728;2022-07-24T11:49:22;3.20;;;1.00;;
71368;SDS011;59175;53.214;5.728;2022-07-24T11:51:48;3.42;;;0.95;;
71368;SDS011;59175;53.214;5.728;2022-07-24T11:54:14;3.00;;;0.85;;
71368;SDS011;59175;53.214;5.728;2022-07-24T11:56:40;3.07;;;1.00;;
71368;SDS011;59175;53.214;5.728;2022-07-24T11:59:20;6.32;;;1.13;;
71368;SDS011;59175;53.214;5.728;2022-07-24T12:01:45;3.45;;;1.10;;
71368;SDS011;59175;53.214;5.728;2022-07-24T12:04:10;3.53;;;1.10;;
71368;SDS011;59175;53.214;5.728;2022-07-24T12:06:36;3.97;;;1.10;;
71368;SDS011;59175;53.214;5.728;2022-07-24T12:09:07;4.27;;;1.30;;
71368;SDS011;59175;53.214;5.728;2022-07-24T12:11:35;3.38;;;1.20;;
71368;SDS011;59175;53.214;5.728;2022-07-24T12:14:00;2.95;;;1.00;;
71368;SDS011;59175;53.214;5.728;2022-07-24T12:16:27;2.63;;;1.00;;
71368;SDS011;59175;53.214;5.728;2022-07-24T12:19:10;4.57;;;1.35;;
71368;SDS011;59175;53.214;5.728;2022-07-24T12:21:35;2.92;;;0.90;;
71368;SDS011;59175;53.214;5.728;2022-07-24T12:24:00;3.43;;;0.93;;
71368;SDS011;59175;53.214;5.728;2022-07-24T12:26:26;4.30;;;1.20;;
71368;SDS011;59175;53.214;5.728;2022-07-24T12:29:07;3.23;;;0.93;;
71368;SDS011;59175;53.214;5.728;2022-07-24T12:31:32;4.63;;;1.25;;
71368;SDS011;59175;53.214;5.728;2022-07-24T12:33:57;4.40;;;0.90;;
71368;SDS011;59175;53.214;5.728;2022-07-24T12:36:25;3.10;;;1.00;;
71368;SDS011;59175;53.214;5.728;2022-07-24T12:38:52;3.15;;;1.15;;
71368;SDS011;59175;53.214;5.728;2022-07-24T12:41:18;3.13;;;1.00;;
71368;SDS011;59175;53.214;5.728;2022-07-24T12:46:22;4.53;;;1.10;;
71368;SDS011;59175;53.214;5.728;2022-07-24T12:49:01;3.53;;;1.13;;
71368;SDS011;59175;53.214;5.728;2022-07-24T12:51:27;2.83;;;1.00;;
71368;SDS011;59175;53.214;5.728;2022-07-24T12:53:55;4.95;;;1.08;;
71368;SDS011;59175;53.214;5.728;2022-07-24T12:56:21;4.07;;;1.30;;
71368;SDS011;59175;53.214;5.728;2022-07-24T12:58:56;2.63;;;1.00;;
71368;SDS011;59175;53.214;5.728;2022-07-24T13:01:22;3.03;;;1.00;;
71368;SDS011;59175;53.214;5.728;2022-07-24T13:03:53;2.80;;;0.93;;
71368;SDS011;59175;53.214;5.728;2022-07-24T13:06:18;3.08;;;0.82;;
71368;SDS011;59175;53.214;5.728;2022-07-24T13:08:43;5.07;;;1.10;;
71368;SDS011;59175;53.214;5.728;2022-07-24T13:11:08;3.47;;;1.20;;
71368;SDS011;59175;53.214;5.728;2022-07-24T13:13:33;3.73;;;1.40;;
71368;SDS011;59175;53.214;5.728;2022-07-24T13:15:59;3.80;;;1.33;;
71368;SDS011;59175;53.214;5.728;2022-07-24T13:18:24;2.70;;;1.07;;
71368;SDS011;59175;53.214;5.728;2022-07-24T13:20:49;3.47;;;1.20;;
71368;SDS011;59175;53.214;5.728;2022-07-24T13:23:14;3.73;;;1.20;;
71368;SDS011;59175;53.214;5.728;2022-07-24T13:25:40;3.33;;;0.80;;
71368;SDS011;59175;53.214;5.728;2022-07-24T13:28:07;3.97;;;1.27;;
71368;SDS011;59175;53.214;5.728;2022-07-24T13:30:32;4.43;;;1.23;;
71368;SDS011;59175;53.214;5.728;2022-07-24T13:32:57;3.50;;;1.80;;
71368;SDS011;59175;53.214;5.728;2022-07-24T13:35:22;4.27;;;1.10;;
71368;SDS011;59175;53.214;5.728;2022-07-24T13:37:48;3.30;;;1.37;;
71368;SDS011;59175;53.214;5.728;2022-07-24T13:40:13;2.95;;;1.15;;
71368;SDS011;59175;53.214;5.728;2022-07-24T13:42:39;2.90;;;1.00;;
71368;SDS011;59175;53.214;5.728;2022-07-24T13:45:05;5.97;;;1.30;;
71368;SDS011;59175;53.214;5.728;2022-07-24T13:47:30;3.30;;;1.20;;
71368;SDS011;59175;53.214;5.728;2022-07-24T13:49:56;3.50;;;1.30;;
71368;SDS011;59175;53.214;5.728;2022-07-24T13:52:21;3.23;;;1.20;;
71368;SDS011;59175;53.214;5.728;2022-07-24T13:54:46;3.43;;;1.37;;
71368;SDS011;59175;53.214;5.728;2022-07-24T13:57:11;3.53;;;1.10;;
71368;SDS011;59175;53.214;5.728;2022-07-24T13:59:38;2.45;;;1.13;;
71368;SDS011;59175;53.214;5.728;2022-07-24T14:02:03;3.50;;;1.20;;
71368;SDS011;59175;53.214;5.728;2022-07-24T14:04:29;5.33;;;1.20;;
71368;SDS011;59175;53.214;5.728;2022-07-24T14:06:54;4.80;;;1.37;;
71368;SDS011;59175;53.214;5.728;2022-07-24T14:09:20;4.57;;;1.70;;
71368;SDS011;59175;53.214;5.728;2022-07-24T14:11:45;5.03;;;1.30;;
71368;SDS011;59175;53.214;5.728;2022-07-24T14:14:10;5.10;;;1.70;;
71368;SDS011;59175;53.214;5.728;2022-07-24T14:16:36;5.63;;;1.80;;
71368;SDS011;59175;53.214;5.728;2022-07-24T14:19:02;4.53;;;1.55;;
71368;SDS011;59175;53.214;5.728;2022-07-24T14:21:27;3.20;;;1.50;;
71368;SDS011;59175;53.214;5.728;2022-07-24T14:23:53;3.92;;;1.50;;
71368;SDS011;59175;53.214;5.728;2022-07-24T14:26:18;3.40;;;1.47;;
71368;SDS011;59175;53.214;5.728;2022-07-24T14:28:44;3.13;;;1.50;;
71368;SDS011;59175;53.214;5.728;2022-07-24T14:31:09;4.43;;;1.83;;
71368;SDS011;59175;53.214;5.728;2022-07-24T14:33:34;5.37;;;1.90;;
71368;SDS011;59175;53.214;5.728;2022-07-24T14:36:00;5.20;;;1.97;;
71368;SDS011;59175;53.214;5.728;2022-07-24T14:38:25;5.50;;;2.10;;
71368;SDS011;59175;53.214;5.728;2022-07-24T14:40:50;6.03;;;1.87;;
71368;SDS011;59175;53.214;5.728;2022-07-24T14:43:15;3.50;;;1.60;;
71368;SDS011;59175;53.214;5.728;2022-07-24T15:02:24;4.53;;;2.10;;
71368;SDS011;59175;53.214;5.728;2022-07-24T15:04:49;7.47;;;1.90;;
71368;SDS011;59175;53.214;5.728;2022-07-24T15:07:14;6.23;;;1.70;;
71368;SDS011;59175;53.214;5.728;2022-07-24T15:09:39;7.00;;;2.00;;
71368;SDS011;59175;53.214;5.728;2022-07-24T15:12:05;3.37;;;1.53;;
71368;SDS011;59175;53.214;5.728;2022-07-24T15:14:30;3.80;;;2.00;;
71368;SDS011;59175;53.214;5.728;2022-07-24T15:16:55;4.57;;;2.20;;